Time;durP1;ratioP1;P1;durP2;ratioP2;P2;SDS_P1;SDS_P2;PMS_P1;PMS_P2;Temp;Humidity;BMP_temperature;BMP_pressure;BME280_temperature;BME280_humidity;BME280_pressure;Samples;Min_cycle;Max_cycle;Signal;HPM_P1;HPM_P2
2022/07/07 00:01:26;;;;;;;0.63;0.63;;;16.70;99.90;;;;;;4999417;28;20033;-84
2022/07/07 00:03:53;;;;;;;0.43;0.43;;;16.70;99.90;;;;;;5034012;28;20041;-86
2022/07/07 00:06:19;;;;;;;0.13;0.13;;;16.70;99.90;;;;;;5033673;28;20052;-86
2022/07/07 00:08:47;;;;;;;0.52;0.43;;;16.70;99.90;;;;;;5033683;28;20491;-86
2022/07/07 00:11:15;;;;;;;0.03;0.03;;;16.70;99.90;;;;;;5017406;28;20077;-86
2022/07/07 00:13:41;;;;;;;0.20;0.20;;;16.60;99.90;;;;;;5033563;28;20034;-86
2022/07/07 00:16:07;;;;;;;0.15;0.15;;;16.60;99.90;;;;;;5016019;28;20056;-86
2022/07/07 00:18:33;;;;;;;0.10;0.10;;;16.50;99.90;;;;;;5017364;28;20041;-87
2022/07/07 00:20:58;;;;;;;0.10;0.10;;;16.60;99.90;;;;;;5000940;28;20038;-86
2022/07/07 00:23:24;;;;;;;0.10;0.10;;;16.50;99.90;;;;;;5017350;28;20033;-86
2022/07/07 00:25:50;;;;;;;0.20;0.20;;;16.40;99.90;;;;;;5016964;28;20106;-87
2022/07/07 00:28:15;;;;;;;0.25;0.25;;;16.30;99.90;;;;;;5016929;28;20128;-86
2022/07/07 00:30:42;;;;;;;0.03;0.03;;;16.20;99.90;;;;;;5016810;28;20049;-87
2022/07/07 00:33:08;;;;;;;0.10;0.10;;;16.10;99.90;;;;;;5000625;28;20095;-87
2022/07/07 00:35:33;;;;;;;0.22;0.22;;;16.00;99.90;;;;;;5033349;28;20046;-87
2022/07/07 00:37:59;;;;;;;0.00;0.00;;;16.00;99.90;;;;;;5000232;28;20041;-86
2022/07/07 00:40:25;;;;;;;0.63;0.43;;;15.90;99.90;;;;;;5000383;28;20504;-87
2022/07/07 00:42:50;;;;;;;0.63;0.40;;;15.80;99.90;;;;;;5016722;28;20041;-87
2022/07/07 00:45:16;;;;;;;0.03;0.03;;;15.80;99.90;;;;;;5016633;28;20067;-88
2022/07/07 00:47:45;;;;;;;0.20;0.20;;;15.70;99.90;;;;;;5016958;28;20057;-88
2022/07/07 00:53:53;;;;;;;0.10;0.10;;;15.60;99.90;;;;;;5033180;28;20040;-83
2022/07/07 00:56:19;;;;;;;2.83;0.35;;;15.70;99.90;;;;;;5015776;28;20487;-84
2022/07/07 00:58:44;;;;;;;0.10;0.10;;;15.60;99.90;;;;;;5032597;28;20112;-84
2022/07/07 01:01:10;;;;;;;0.10;0.10;;;15.60;99.90;;;;;;5015017;28;20041;-84
2022/07/07 01:03:36;;;;;;;0.00;0.00;;;15.60;99.90;;;;;;5015959;28;20037;-84
2022/07/07 01:06:02;;;;;;;0.17;0.17;;;15.60;99.90;;;;;;5032529;28;20038;-84
2022/07/07 01:08:29;;;;;;;0.00;0.00;;;15.60;99.90;;;;;;5032576;28;20041;-84
2022/07/07 01:10:54;;;;;;;0.13;0.10;;;15.60;99.90;;;;;;5032845;28;20046;-89
2022/07/07 01:13:20;;;;;;;0.10;0.10;;;15.60;99.90;;;;;;5016152;28;20034;-88
2022/07/07 01:15:46;;;;;;;0.10;0.10;;;15.60;99.90;;;;;;4999861;28;20041;-89
2022/07/07 01:18:11;;;;;;;0.10;0.10;;;15.60;99.90;;;;;;5032527;28;20048;-89
2022/07/07 01:20:41;;;;;;;0.38;0.38;;;15.70;99.90;;;;;;5032673;28;20132;-89
2022/07/07 01:23:08;;;;;;;1.13;0.57;;;15.60;99.90;;;;;;5032584;28;20049;-88
2022/07/07 01:25:34;;;;;;;0.10;0.10;;;15.60;99.90;;;;;;5016166;28;20134;-88
2022/07/07 01:28:00;;;;;;;0.55;0.55;;;15.60;99.90;;;;;;5015518;28;20077;-83
2022/07/07 01:30:25;;;;;;;0.10;0.10;;;15.60;99.90;;;;;;5015819;28;20033;-83
2022/07/07 01:32:51;;;;;;;0.15;0.15;;;15.60;99.90;;;;;;5031985;28;20049;-83
2022/07/07 01:35:17;;;;;;;0.20;0.20;;;15.60;99.90;;;;;;5032255;28;20091;-83
2022/07/07 01:37:43;;;;;;;1.40;0.30;;;15.70;99.90;;;;;;5032058;28;20042;-84
2022/07/07 01:40:09;;;;;;;0.00;0.00;;;15.70;99.90;;;;;;5016081;28;20092;-83
2022/07/07 01:42:34;;;;;;;0.20;0.20;;;15.70;99.90;;;;;;5015860;28;20490;-83
2022/07/07 01:45:00;;;;;;;0.35;0.35;;;15.70;99.90;;;;;;5015962;28;20038;-89
2022/07/07 01:47:26;;;;;;;0.10;0.10;;;15.70;99.90;;;;;;5015541;28;20041;-89
2022/07/07 01:49:52;;;;;;;0.08;0.08;;;15.70;99.90;;;;;;5015801;28;20033;-89
2022/07/07 01:52:18;;;;;;;0.25;0.25;;;15.70;99.90;;;;;;5015507;28;20124;-89
2022/07/07 01:54:44;;;;;;;0.10;0.10;;;15.70;99.90;;;;;;5032023;28;20037;-89
2022/07/07 01:57:10;;;;;;;8.27;1.85;;;15.70;99.90;;;;;;5032272;28;20041;-88
2022/07/07 01:59:36;;;;;;;0.10;0.10;;;15.70;99.90;;;;;;5015448;28;20140;-90
2022/07/07 02:02:03;;;;;;;6.43;1.27;;;15.70;99.90;;;;;;5014493;28;20037;-89
2022/07/07 02:04:29;;;;;;;1.65;0.52;;;15.70;99.90;;;;;;5032045;28;20037;-89
2022/07/07 02:06:54;;;;;;;0.00;0.00;;;15.70;99.90;;;;;;5032251;28;20494;-89
2022/07/07 02:09:20;;;;;;;0.10;0.10;;;15.70;99.90;;;;;;5031952;28;20483;-90
2022/07/07 02:11:46;;;;;;;0.00;0.00;;;15.70;99.90;;;;;;5015455;28;20037;-89
2022/07/07 02:14:11;;;;;;;0.10;0.10;;;15.70;99.90;;;;;;5015504;28;20148;-89
2022/07/07 02:16:37;;;;;;;0.10;0.10;;;15.60;99.90;;;;;;5015888;28;20132;-87
2022/07/07 02:19:08;;;;;;;0.10;0.10;;;15.60;99.90;;;;;;5015494;28;20045;-89
2022/07/07 02:21:35;;;;;;;0.15;0.15;;;15.60;99.90;;;;;;5015311;28;20069;-88
2022/07/07 02:24:01;;;;;;;0.15;0.08;;;15.60;99.90;;;;;;5031937;28;20041;-89
2022/07/07 02:26:27;;;;;;;0.10;0.10;;;15.60;99.90;;;;;;5015527;28;20080;-89
2022/07/07 02:28:53;;;;;;;0.13;0.13;;;15.50;99.90;;;;;;5032263;28;20123;-89
2022/07/07 02:31:19;;;;;;;0.10;0.10;;;15.50;99.90;;;;;;5031656;28;20042;-88
2022/07/07 02:33:45;;;;;;;0.32;0.32;;;15.50;99.90;;;;;;5015399;28;20077;-84
2022/07/07 02:36:12;;;;;;;0.10;0.10;;;15.50;99.90;;;;;;5015298;28;20577;-84
2022/07/07 02:38:38;;;;;;;0.00;0.00;;;15.40;99.90;;;;;;5031378;28;20069;-84
2022/07/07 02:41:05;;;;;;;0.10;0.10;;;15.40;99.90;;;;;;5018548;28;20123;-84
2022/07/07 02:43:31;;;;;;;0.38;0.10;;;15.40;99.90;;;;;;5018752;28;20084;-84
2022/07/07 02:45:57;;;;;;;0.00;0.00;;;15.40;99.90;;;;;;5035462;28;20373;-84
2022/07/07 02:48:25;;;;;;;0.20;0.20;;;15.40;99.90;;;;;;5018730;28;20048;-84
2022/07/07 02:50:51;;;;;;;0.10;0.10;;;15.40;99.90;;;;;;5035419;28;20030;-83
2022/07/07 02:53:18;;;;;;;0.10;0.10;;;15.40;99.90;;;;;;5018635;28;20124;-84
2022/07/07 02:55:44;;;;;;;0.90;0.50;;;15.40;99.90;;;;;;5002092;28;20120;-83
2022/07/07 02:58:11;;;;;;;0.00;0.00;;;15.40;99.90;;;;;;5035270;28;20495;-84
2022/07/07 03:00:38;;;;;;;0.00;0.00;;;15.50;99.90;;;;;;5020281;28;20123;-83
2022/07/07 03:03:06;;;;;;;0.00;0.00;;;15.50;99.90;;;;;;5021794;28;20041;-83
2022/07/07 03:05:32;;;;;;;0.00;0.00;;;15.50;99.90;;;;;;5022124;28;20458;-83
2022/07/07 03:07:58;;;;;;;0.28;0.28;;;15.50;99.90;;;;;;5021659;28;20565;-89
2022/07/07 03:10:25;;;;;;;0.20;0.15;;;15.50;99.90;;;;;;5022081;28;20364;-89
2022/07/07 03:12:51;;;;;;;0.52;0.52;;;15.50;99.90;;;;;;5038106;28;20083;-88
2022/07/07 03:15:16;;;;;;;0.10;0.10;;;15.50;99.90;;;;;;5021838;28;20064;-89
2022/07/07 03:17:44;;;;;;;0.10;0.10;;;15.50;99.90;;;;;;5021660;28;20044;-90
2022/07/07 03:20:11;;;;;;;0.00;0.00;;;15.40;99.90;;;;;;5021772;28;20045;-89
2022/07/07 03:22:38;;;;;;;0.17;0.17;;;15.40;99.90;;;;;;5021850;28;20057;-89
2022/07/07 03:25:04;;;;;;;0.13;0.13;;;15.40;99.90;;;;;;5021391;28;20094;-84
2022/07/07 03:27:30;;;;;;;0.00;0.00;;;15.40;99.90;;;;;;5021270;28;20136;-84
2022/07/07 03:29:56;;;;;;;0.38;0.38;;;15.40;99.90;;;;;;5021421;28;20044;-84
2022/07/07 03:32:22;;;;;;;0.10;0.10;;;15.30;99.90;;;;;;5021284;28;20395;-84
2022/07/07 03:34:48;;;;;;;0.00;0.00;;;14.50;99.90;;;;;;5005108;28;20112;-83
2022/07/07 03:37:13;;;;;;;0.00;0.00;;;15.30;99.90;;;;;;5037802;28;20045;-83
2022/07/07 03:39:39;;;;;;;0.10;0.10;;;15.30;99.90;;;;;;5037628;28;20446;-87
2022/07/07 03:42:05;;;;;;;2.75;0.35;;;15.30;99.90;;;;;;5004825;28;20041;-88
2022/07/07 03:44:31;;;;;;;0.10;0.10;;;15.10;99.90;;;;;;5037691;28;20103;-88
2022/07/07 03:46:57;;;;;;;0.00;0.00;;;15.00;99.90;;;;;;5005253;28;20088;-89
2022/07/07 03:49:22;;;;;;;0.08;0.08;;;14.80;99.90;;;;;;5004795;28;20041;-89
2022/07/07 03:51:48;;;;;;;0.00;0.00;;;14.80;99.90;;;;;;5037386;28;20493;-89
2022/07/07 03:54:14;;;;;;;0.00;0.00;;;14.70;99.90;;;;;;5004837;28;20041;-89
2022/07/07 03:56:40;;;;;;;0.68;0.30;;;14.70;99.90;;;;;;5037700;28;20041;-89
2022/07/07 03:59:06;;;;;;;0.00;0.00;;;14.60;99.90;;;;;;5020822;28;20064;-89
2022/07/07 04:01:31;;;;;;;0.00;0.00;;;14.60;99.90;;;;;;5019697;28;20119;-89
2022/07/07 04:03:57;;;;;;;0.00;0.00;;;14.60;99.90;;;;;;5021022;28;20099;-89
2022/07/07 04:06:23;;;;;;;0.00;0.00;;;14.70;99.90;;;;;;5020999;28;20371;-89
2022/07/07 04:08:49;;;;;;;0.00;0.00;;;14.60;99.90;;;;;;5020814;28;20479;-89
2022/07/07 04:11:16;;;;;;;0.00;0.00;;;14.60;99.90;;;;;;5020754;28;20037;-90
2022/07/07 04:13:42;;;;;;;0.10;0.10;;;14.60;99.90;;;;;;5020753;28;20029;-89
2022/07/07 04:16:08;;;;;;;0.00;0.00;;;14.60;99.90;;;;;;5020641;28;20044;-88
2022/07/07 04:18:34;;;;;;;0.00;0.00;;;14.60;99.90;;;;;;5020614;28;20128;-87
2022/07/07 04:21:00;;;;;;;0.00;0.00;;;14.60;99.90;;;;;;5037224;28;20388;-88
2022/07/07 04:23:26;;;;;;;0.05;0.05;;;14.60;99.90;;;;;;5020418;28;20127;-89
2022/07/07 04:25:52;;;;;;;0.10;0.10;;;14.50;99.90;;;;;;5003924;28;20079;-89
2022/07/07 04:28:18;;;;;;;0.00;0.00;;;14.50;99.90;;;;;;5036774;28;20044;-90
2022/07/07 04:30:47;;;;;;;0.00;0.00;;;14.80;99.90;;;;;;5036869;28;20140;-83
2022/07/07 04:33:13;;;;;;;0.00;0.00;;;14.60;99.90;;;;;;5036559;28;20076;-83
2022/07/07 04:35:38;;;;;;;0.00;0.00;;;14.60;99.90;;;;;;5020034;28;20037;-83
2022/07/07 04:38:04;;;;;;;0.00;0.00;;;14.90;99.90;;;;;;5020163;28;20044;-83
2022/07/07 04:40:30;;;;;;;0.10;0.10;;;14.80;99.90;;;;;;5020155;28;20040;-83
2022/07/07 04:42:55;;;;;;;0.00;0.00;;;14.70;99.90;;;;;;5019868;28;20041;-83
2022/07/07 04:45:21;;;;;;;0.10;0.10;;;14.80;99.90;;;;;;5019928;28;20052;-84
2022/07/07 04:47:47;;;;;;;0.00;0.00;;;14.80;99.90;;;;;;5019773;28;20091;-89
2022/07/07 04:50:13;;;;;;;0.00;0.00;;;14.80;99.90;;;;;;5019986;28;20549;-90
2022/07/07 04:52:39;;;;;;;0.15;0.15;;;14.80;99.90;;;;;;5019874;28;20064;-89
2022/07/07 04:55:06;;;;;;;0.10;0.10;;;14.90;99.90;;;;;;5036341;28;20120;-89
2022/07/07 04:57:34;;;;;;;0.00;0.00;;;14.90;99.90;;;;;;5036356;28;20037;-90
2022/07/07 04:59:59;;;;;;;0.65;0.20;;;15.00;99.90;;;;;;5032820;28;20139;-89
2022/07/07 05:02:25;;;;;;;0.10;0.10;;;15.20;99.90;;;;;;5039212;28;20130;-89
2022/07/07 05:04:51;;;;;;;0.05;0.05;;;15.40;99.90;;;;;;5022767;28;20501;-84
2022/07/07 05:07:18;;;;;;;0.10;0.10;;;15.40;99.90;;;;;;5019329;28;20088;-85
2022/07/07 05:09:44;;;;;;;0.10;0.10;;;15.40;99.90;;;;;;5035833;28;20434;-85
2022/07/07 05:12:10;;;;;;;0.10;0.10;;;15.20;99.90;;;;;;5019761;28;20395;-85
2022/07/07 05:14:36;;;;;;;0.60;0.40;;;15.10;99.90;;;;;;5047079;22;20048;-89
2022/07/07 05:17:02;;;;;;;0.00;0.00;;;15.10;99.90;;;;;;5039681;28;20040;-89
2022/07/07 05:19:28;;;;;;;0.13;0.13;;;15.10;99.90;;;;;;5039447;28;20048;-90
2022/07/07 05:21:54;;;;;;;0.15;0.15;;;15.20;99.90;;;;;;5055859;28;20486;-89
2022/07/07 05:24:20;;;;;;;0.03;0.03;;;15.20;99.90;;;;;;5055765;28;20076;-89
2022/07/07 05:26:47;;;;;;;0.32;0.32;;;15.30;99.90;;;;;;5055530;28;20059;-89
2022/07/07 05:29:13;;;;;;;0.00;0.00;;;15.50;99.90;;;;;;5023637;28;20115;-87
2022/07/07 05:31:39;;;;;;;0.10;0.10;;;15.90;99.90;;;;;;5056336;28;20041;-89
2022/07/07 05:34:04;;;;;;;0.10;0.10;;;16.70;99.90;;;;;;5023594;28;20091;-88
2022/07/07 05:36:32;;;;;;;0.00;0.00;;;17.20;99.90;;;;;;5056506;28;20155;-87
2022/07/07 05:38:57;;;;;;;0.20;0.17;;;17.70;99.90;;;;;;5039352;28;20501;-87
2022/07/07 05:41:23;;;;;;;0.20;0.20;;;18.20;99.90;;;;;;5022770;28;20033;-87
2022/07/07 05:43:49;;;;;;;0.30;0.20;;;18.70;99.90;;;;;;5039408;28;20071;-86
2022/07/07 05:46:15;;;;;;;0.00;0.00;;;18.80;99.90;;;;;;5055734;28;20040;-87
2022/07/07 05:48:40;;;;;;;0.10;0.10;;;19.50;99.90;;;;;;5055873;28;20086;-87
2022/07/07 05:51:06;;;;;;;0.10;0.10;;;19.90;99.90;;;;;;5039055;28;20486;-87
2022/07/07 05:53:32;;;;;;;0.10;0.10;;;19.80;99.90;;;;;;5055578;28;20123;-85
2022/07/07 05:55:58;;;;;;;0.10;0.10;;;19.10;99.90;;;;;;5055108;28;20200;-85
2022/07/07 05:58:24;;;;;;;1.05;0.95;;;18.50;99.90;;;;;;5055536;28;20032;-85
2022/07/07 06:00:50;;;;;;;0.00;0.00;;;17.90;99.90;;;;;;5054493;28;20173;-85
2022/07/07 06:03:15;;;;;;;2.28;0.73;;;17.40;99.90;;;;;;5055362;28;20119;-85
2022/07/07 06:05:42;;;;;;;0.10;0.10;;;17.60;99.90;;;;;;5054819;28;20167;-85
2022/07/07 06:08:08;;;;;;;0.10;0.10;;;17.70;99.90;;;;;;5038256;28;20036;-85
2022/07/07 06:10:34;;;;;;;0.10;0.10;;;17.80;99.90;;;;;;5055348;28;20032;-86
2022/07/07 06:13:00;;;;;;;0.08;0.08;;;18.30;99.90;;;;;;5041758;28;20048;-87
2022/07/07 06:15:27;;;;;;;0.10;0.10;;;19.80;99.90;;;;;;5054262;28;20114;-86
2022/07/07 06:17:54;;;;;;;0.68;0.40;;;20.10;99.90;;;;;;5039392;28;20045;-86
2022/07/07 06:20:20;;;;;;;0.03;0.03;;;19.80;99.90;;;;;;5056202;28;20048;-86
2022/07/07 06:22:46;;;;;;;0.25;0.25;;;19.10;99.90;;;;;;5055734;28;20395;-86
2022/07/07 06:25:11;;;;;;;0.00;0.00;;;18.40;99.90;;;;;;5055844;28;20471;-86
2022/07/07 06:27:37;;;;;;;0.00;0.00;;;17.80;99.90;;;;;;5038880;28;20041;-84
2022/07/07 06:30:05;;;;;;;0.10;0.10;;;18.30;99.90;;;;;;5031228;28;20039;-84
2022/07/07 06:32:31;;;;;;;0.10;0.10;;;20.90;99.90;;;;;;5018900;28;20052;-84
2022/07/07 06:34:56;;;;;;;0.10;0.10;;;21.10;99.90;;;;;;5035781;28;20037;-85
2022/07/07 06:37:22;;;;;;;0.35;0.35;;;21.30;99.90;;;;;;5018864;28;20041;-85
2022/07/07 06:39:48;;;;;;;0.10;0.10;;;21.00;99.90;;;;;;5018963;28;20399;-84
2022/07/07 06:42:14;;;;;;;0.10;0.10;;;20.40;99.90;;;;;;5018851;28;20120;-85
2022/07/07 06:44:39;;;;;;;0.00;0.00;;;19.60;99.90;;;;;;5019031;28;20041;-83
2022/07/07 06:47:05;;;;;;;0.00;0.00;;;;;;;;;;5035216;28;20049;-83
2022/07/07 06:49:31;;;;;;;0.00;0.00;;;20.50;99.90;;;;;;5019025;28;20041;-84
2022/07/07 06:51:57;;;;;;;0.13;0.13;;;21.10;99.90;;;;;;5018600;28;20156;-83
2022/07/07 06:54:23;;;;;;;0.00;0.00;;;21.20;99.90;;;;;;5018679;28;20124;-84
2022/07/07 06:56:49;;;;;;;0.10;0.10;;;21.00;99.90;;;;;;5017106;28;20045;-84
2022/07/07 06:59:15;;;;;;;0.03;0.03;;;20.50;99.90;;;;;;5055169;28;20045;-84
2022/07/07 07:01:41;;;;;;;0.00;0.00;;;19.70;99.90;;;;;;5036705;28;20486;-84
2022/07/07 07:04:09;;;;;;;0.03;0.03;;;19.40;99.90;;;;;;5055014;28;20090;-83
2022/07/07 07:06:35;;;;;;;0.38;0.38;;;19.00;99.90;;;;;;5054235;28;20570;-83
2022/07/07 07:09:02;;;;;;;0.10;0.10;;;18.60;99.90;;;;;;5055032;28;20047;-84
2022/07/07 07:11:28;;;;;;;0.00;0.00;;;18.30;99.90;;;;;;5054965;28;20048;-84
2022/07/07 07:13:56;;;;;;;0.10;0.10;;;18.20;99.90;;;;;;5054578;28;20048;-84
2022/07/07 07:16:21;;;;;;;0.00;0.00;;;18.10;99.90;;;;;;5038340;28;20072;-83
2022/07/07 07:18:47;;;;;;;0.00;0.00;;;18.20;99.90;;;;;;5054678;28;20068;-83
2022/07/07 07:21:13;;;;;;;0.20;0.10;;;18.90;99.90;;;;;;5021312;28;20094;-83
2022/07/07 07:23:39;;;;;;;0.30;0.20;;;19.70;99.90;;;;;;5021364;28;20047;-84
2022/07/07 07:26:07;;;;;;;0.10;0.10;;;20.00;99.90;;;;;;5054083;28;20041;-84
2022/07/07 07:28:33;;;;;;;0.00;0.00;;;19.70;99.90;;;;;;5021280;28;20060;-84
2022/07/07 07:31:00;;;;;;;0.00;0.00;;;19.60;99.90;;;;;;5054327;28;20525;-84
2022/07/07 07:33:26;;;;;;;0.00;0.00;;;19.50;99.90;;;;;;5054532;28;20555;-87
2022/07/07 07:35:52;;;;;;;2.30;2.10;;;19.50;99.90;;;;;;5037809;28;20033;-86
2022/07/07 07:38:17;;;;;;;0.03;0.03;;;19.50;99.90;;;;;;5037904;28;20391;-86
2022/07/07 07:40:43;;;;;;;0.75;0.20;;;19.40;99.90;;;;;;5037594;28;20479;-87
2022/07/07 07:43:09;;;;;;;0.20;0.20;;;19.80;99.90;;;;;;5037572;28;20037;-87
2022/07/07 07:45:35;;;;;;;0.57;0.20;;;20.60;99.90;;;;;;5054095;28;20045;-86
2022/07/07 07:48:02;;;;;;;0.20;0.20;;;22.00;99.90;;;;;;5037563;28;20052;-86
2022/07/07 07:50:29;;;;;;;0.00;0.00;;;22.50;99.90;;;;;;5054289;28;20036;-85
2022/07/07 07:52:56;;;;;;;0.10;0.10;;;22.20;99.90;;;;;;5037643;28;20045;-85
2022/07/07 07:55:22;;;;;;;0.65;0.65;;;21.60;99.90;;;;;;5053879;28;20028;-85
2022/07/07 07:57:48;;;;;;;0.90;0.30;;;20.80;99.90;;;;;;5037480;28;20098;-85
2022/07/07 08:00:16;;;;;;;0.05;0.05;;;20.20;99.90;;;;;;5053850;28;20045;-85
2022/07/07 08:02:43;;;;;;;1.65;1.55;;;20.30;99.90;;;;;;5035909;28;20071;-86
2022/07/07 08:05:12;;;;;;;0.00;0.00;;;;;;;;;;5053604;28;20094;-85
2022/07/07 08:07:39;;;;;;;0.70;0.40;;;22.20;99.90;;;;;;5053665;28;20106;-85
2022/07/07 08:10:05;;;;;;;0.05;0.05;;;22.10;99.90;;;;;;5037148;28;20069;-85
2022/07/07 08:12:31;;;;;;;0.00;0.00;;;21.60;99.90;;;;;;5036982;28;20065;-85
2022/07/07 08:14:57;;;;;;;0.00;0.00;;;21.00;99.90;;;;;;5021463;28;20099;-85
2022/07/07 08:17:23;;;;;;;0.10;0.10;;;21.40;99.90;;;;;;5038956;28;20124;-85
2022/07/07 08:19:49;;;;;;;0.10;0.10;;;22.80;99.90;;;;;;5038411;28;20044;-85
2022/07/07 08:22:15;;;;;;;0.30;0.30;;;22.90;99.90;;;;;;5036796;28;20243;-85
2022/07/07 08:24:41;;;;;;;0.10;0.10;;;22.60;99.90;;;;;;5037134;28;20428;-85
2022/07/07 08:27:07;;;;;;;0.00;0.00;;;22.00;99.90;;;;;;5053427;28;20079;-85
2022/07/07 08:29:32;;;;;;;0.00;0.00;;;20.90;99.90;;;;;;5020596;28;20495;-85
2022/07/07 08:31:58;;;;;;;0.10;0.10;;;20.70;99.90;;;;;;5036484;28;20138;-85
2022/07/07 08:34:24;;;;;;;0.30;0.30;;;19.90;99.90;;;;;;5053090;28;20119;-85
2022/07/07 08:36:50;;;;;;;0.10;0.10;;;19.80;99.90;;;;;;5052504;28;20052;-86
2022/07/07 08:39:15;;;;;;;0.00;0.00;;;19.70;99.90;;;;;;5036688;28;20045;-85
2022/07/07 08:41:42;;;;;;;0.00;0.00;;;19.70;99.90;;;;;;5036489;28;20076;-86
2022/07/07 08:44:08;;;;;;;0.32;0.25;;;19.80;99.90;;;;;;5052993;28;20120;-86
2022/07/07 08:46:34;;;;;;;0.00;0.00;;;20.70;99.90;;;;;;5052688;28;20487;-86
2022/07/07 08:49:00;;;;;;;0.00;0.00;;;23.40;99.90;;;;;;5053244;28;20080;-86
2022/07/07 08:51:26;;;;;;;0.10;0.10;;;23.80;99.90;;;;;;5052897;28;20507;-85
2022/07/07 08:53:52;;;;;;;0.20;0.20;;;23.90;99.90;;;;;;5036232;28;20044;-86
2022/07/07 08:56:19;;;;;;;0.15;0.15;;;23.10;99.90;;;;;;5019675;28;20080;-86
2022/07/07 08:58:45;;;;;;;0.45;0.45;;;22.30;99.90;;;;;;5052694;28;20045;-86
2022/07/07 09:01:12;;;;;;;0.10;0.10;;;21.40;99.90;;;;;;5052717;28;20045;-86
2022/07/07 09:03:38;;;;;;;0.10;0.10;;;20.90;99.90;;;;;;5051096;28;20495;-86
2022/07/07 09:06:04;;;;;;;0.20;0.20;;;20.70;99.90;;;;;;5052580;28;20561;-86
2022/07/07 09:08:31;;;;;;;0.00;0.00;;;21.10;99.90;;;;;;5019638;28;20049;-87
2022/07/07 09:10:57;;;;;;;0.00;0.00;;;21.80;99.90;;;;;;5052368;28;20068;-87
2022/07/07 09:13:32;;;;;;;0.10;0.10;;;22.50;99.90;;;;;;5035887;28;20479;-84
2022/07/07 09:16:18;;;;;;;0.10;0.10;;;23.00;99.90;;;;;;5052047;28;20049;-84
2022/07/07 09:18:45;;;;;;;0.10;0.10;;;24.40;99.90;;;;;;5035820;28;20080;-84
2022/07/07 09:21:27;;;;;;;0.47;0.47;;;26.30;99.90;;;;;;5052160;28;20044;-85
2022/07/07 09:23:55;;;;;;;0.65;0.30;;;25.80;99.90;;;;;;5052330;28;20494;-85
2022/07/07 09:26:38;;;;;;;0.10;0.10;;;24.60;99.90;;;;;;5051977;28;20037;-85
2022/07/07 09:29:10;;;;;;;0.10;0.10;;;23.10;99.90;;;;;;5035711;28;20049;-84
2022/07/07 09:32:06;;;;;;;0.10;0.10;;;22.80;99.90;;;;;;5035441;28;20476;-83
2022/07/07 09:34:34;;;;;;;0.20;0.20;;;22.70;99.90;;;;;;5023469;28;20053;-83
2022/07/07 09:39:47;;;;;;;0.13;0.13;;;22.00;99.90;;;;;;5052161;28;20053;-83
2022/07/07 09:42:30;;;;;;;0.10;0.10;;;21.10;99.90;;;;;;5052201;28;20044;-84
2022/07/07 09:45:03;;;;;;;0.00;0.00;;;20.40;99.90;;;;;;5052284;28;20036;-83
2022/07/07 09:47:29;;;;;;;0.13;0.13;;;20.20;99.90;;;;;;5051859;28;20453;-83
2022/07/07 09:50:14;;;;;;;0.17;0.13;;;19.60;99.90;;;;;;5051714;28;20041;-83
2022/07/07 09:52:44;;;;;;;0.00;0.00;;;19.40;99.90;;;;;;5035325;28;20040;-84
2022/07/07 09:55:11;;;;;;;0.08;0.08;;;19.40;99.90;;;;;;5035488;28;20037;-84
2022/07/07 09:57:38;;;;;;;0.13;0.13;;;19.30;99.90;;;;;;5051953;28;20041;-83
2022/07/07 10:00:05;;;;;;;0.00;0.00;;;19.60;99.90;;;;;;5035231;28;20044;-83
2022/07/07 10:02:31;;;;;;;0.10;0.10;;;20.90;99.90;;;;;;5033733;28;20129;-84
2022/07/07 10:04:59;;;;;;;0.08;0.08;;;23.00;99.90;;;;;;5035115;28;20550;-85
2022/07/07 10:07:30;;;;;;;0.00;0.00;;;23.30;99.90;;;;;;5051652;28;20037;-85
2022/07/07 10:10:00;;;;;;;0.03;0.03;;;22.70;99.90;;;;;;5051684;28;20083;-84
2022/07/07 10:12:28;;;;;;;1.85;0.22;;;21.80;99.90;;;;;;5035008;28;20037;-85
2022/07/07 10:15:03;;;;;;;0.17;0.17;;;21.10;99.90;;;;;;5051568;28;20111;-85
2022/07/07 10:17:30;;;;;;;0.10;0.10;;;20.70;99.90;;;;;;5051598;28;20123;-84
2022/07/07 10:19:56;;;;;;;0.17;0.17;;;20.40;99.90;;;;;;5052063;28;20083;-84
2022/07/07 10:22:27;;;;;;;0.10;0.10;;;20.10;99.90;;;;;;5035021;28;20036;-83
2022/07/07 10:24:59;;;;;;;0.15;0.15;;;19.70;99.90;;;;;;5034945;28;20076;-83
2022/07/07 10:27:27;;;;;;;0.03;0.03;;;19.80;99.90;;;;;;5051377;28;20483;-83
2022/07/07 10:29:55;;;;;;;0.13;0.13;;;19.90;99.90;;;;;;5035218;28;20408;-83
2022/07/07 10:32:40;;;;;;;0.15;0.15;;;20.30;99.90;;;;;;5051375;28;20092;-83
2022/07/07 10:35:12;;;;;;;0.20;0.20;;;20.70;99.90;;;;;;5035289;28;20052;-83
2022/07/07 10:37:45;;;;;;;0.98;0.22;;;20.70;99.90;;;;;;5034792;28;20394;-83
2022/07/07 10:40:17;;;;;;;0.32;0.32;;;20.50;99.90;;;;;;5051718;28;20041;-83
2022/07/07 10:43:01;;;;;;;0.00;0.00;;;20.50;99.90;;;;;;5051533;28;20076;-83
2022/07/07 10:45:28;;;;;;;1.17;1.05;;;20.80;99.90;;;;;;5051761;28;20044;-83
2022/07/07 10:47:54;;;;;;;0.10;0.10;;;20.80;99.90;;;;;;5051179;28;20037;-83
2022/07/07 10:50:33;;;;;;;0.00;0.00;;;20.40;99.90;;;;;;5051374;28;20040;-83
2022/07/07 10:53:00;;;;;;;0.10;0.10;;;20.00;99.90;;;;;;5051269;28;20094;-83
2022/07/07 10:55:54;;;;;;;0.00;0.00;;;19.80;99.90;;;;;;5034893;28;20423;-83
2022/07/07 10:58:51;;;;;;;0.30;0.30;;;19.70;99.90;;;;;;5051472;28;20127;-83
2022/07/07 11:01:17;;;;;;;0.22;0.17;;;19.60;99.90;;;;;;5037007;28;20253;-83
2022/07/07 11:03:42;;;;;;;0.10;0.10;;;19.50;99.90;;;;;;5037248;28;20119;-83
2022/07/07 11:06:08;;;;;;;0.10;0.10;;;19.50;99.90;;;;;;5038009;28;20048;-83
2022/07/07 11:08:40;;;;;;;1.90;1.35;;;19.70;99.90;;;;;;5054727;28;20041;-83
2022/07/07 11:11:07;;;;;;;0.10;0.10;;;19.90;99.90;;;;;;5054878;28;20029;-87
2022/07/07 11:13:38;;;;;;;2.05;0.90;;;20.10;99.90;;;;;;5021991;28;20364;-88
2022/07/07 11:16:15;;;;;;;0.30;0.30;;;20.30;99.90;;;;;;5054670;28;20049;-87
2022/07/07 11:19:08;;;;;;;0.00;0.00;;;20.40;99.90;;;;;;5038247;28;20068;-87
2022/07/07 11:21:38;;;;;;;0.20;0.20;;;20.40;99.90;;;;;;5035197;28;20555;-87
2022/07/07 11:24:34;;;;;;;1.42;0.30;;;20.40;99.90;;;;;;5038262;28;20041;-88
2022/07/07 11:27:02;;;;;;;0.00;0.00;;;20.60;99.90;;;;;;5054702;28;20044;-84
2022/07/07 11:29:29;;;;;;;0.15;0.15;;;21.10;99.90;;;;;;5054358;28;20055;-83
2022/07/07 11:32:07;;;;;;;0.22;0.22;;;21.60;99.90;;;;;;5038183;28;20033;-83
2022/07/07 11:34:46;;;;;;;0.15;0.10;;;21.70;99.90;;;;;;5037841;28;20068;-83
2022/07/07 11:37:27;;;;;;;0.00;0.00;;;21.50;99.90;;;;;;5054243;28;20509;-83
2022/07/07 11:39:53;;;;;;;0.10;0.10;;;21.30;99.90;;;;;;5054467;28;20143;-83
2022/07/07 11:42:19;;;;;;;0.17;0.17;;;21.40;99.90;;;;;;5037499;28;20052;-83
2022/07/07 11:44:45;;;;;;;0.10;0.10;;;21.30;99.90;;;;;;5037565;28;20483;-87
2022/07/07 11:47:11;;;;;;;4.38;2.05;;;21.10;99.90;;;;;;5037620;28;20037;-86
2022/07/07 11:49:37;;;;;;;0.17;0.13;;;20.80;99.90;;;;;;5054062;28;20037;-87
2022/07/07 11:52:04;;;;;;;0.00;0.00;;;20.70;99.90;;;;;;5054375;28;20091;-86
2022/07/07 11:54:30;;;;;;;0.00;0.00;;;20.70;99.90;;;;;;5054791;28;20052;-86
2022/07/07 11:56:55;;;;;;;0.32;0.20;;;20.50;99.90;;;;;;5054082;28;20041;-86
2022/07/07 11:59:22;;;;;;;0.52;0.52;;;20.10;99.90;;;;;;5054252;28;20048;-85
2022/07/07 12:01:50;;;;;;;0.50;0.50;;;19.90;99.90;;;;;;5035975;28;20045;-82
2022/07/07 12:04:22;;;;;;;0.20;0.20;;;19.90;99.90;;;;;;5037147;28;20047;-83
2022/07/07 12:06:50;;;;;;;0.20;0.20;;;19.70;99.90;;;;;;5036714;28;20044;-83
2022/07/07 12:09:16;;;;;;;0.05;0.05;;;19.50;99.90;;;;;;5037115;28;20041;-83
2022/07/07 12:11:43;;;;;;;0.32;0.30;;;19.40;99.90;;;;;;5037184;28;20379;-83
2022/07/07 12:14:11;;;;;;;0.40;0.40;;;19.10;99.90;;;;;;5053247;28;20041;-83
2022/07/07 12:16:41;;;;;;;0.45;0.45;;;18.80;99.90;;;;;;5053709;28;20609;-87
2022/07/07 12:19:06;;;;;;;0.00;0.00;;;18.80;99.90;;;;;;5053828;28;20099;-86
2022/07/07 12:21:40;;;;;;;0.22;0.22;;;19.10;99.90;;;;;;5036761;28;20040;-87
2022/07/07 12:24:07;;;;;;;3.40;0.88;;;19.20;99.90;;;;;;5038156;28;20039;-86
2022/07/07 12:26:43;;;;;;;8.13;0.57;;;19.00;99.90;;;;;;5036741;28;20044;-86
2022/07/07 12:29:09;;;;;;;0.40;0.35;;;19.20;99.90;;;;;;5053514;28;20098;-87
2022/07/07 12:31:35;;;;;;;0.65;0.40;;;19.30;99.90;;;;;;5037000;28;20037;-87
2022/07/07 12:34:15;;;;;;;0.55;0.45;;;19.40;99.90;;;;;;5053471;28;20045;-87
2022/07/07 12:36:42;;;;;;;0.30;0.30;;;19.50;99.90;;;;;;5053193;28;20561;-87
2022/07/07 12:39:08;;;;;;;1.65;1.55;;;19.70;99.90;;;;;;5053655;28;20383;-88
2022/07/07 12:41:39;;;;;;;0.20;0.20;;;19.80;99.90;;;;;;5036797;28;20040;-87
2022/07/07 12:44:15;;;;;;;0.20;0.20;;;19.80;99.90;;;;;;5053291;28;20045;-87
2022/07/07 12:46:41;;;;;;;;;;;19.70;99.90;;;;;;5053315;28;20037;-87
2022/07/07 12:49:07;;;;;;;0.98;0.70;;;19.70;99.90;;;;;;5052822;28;19920;-88
2022/07/07 12:51:33;;;;;;;0.20;0.20;;;19.80;99.90;;;;;;5036270;28;20052;-84
2022/07/07 12:54:01;;;;;;;0.25;0.25;;;20.10;99.90;;;;;;5052769;28;20445;-84
2022/07/07 12:56:35;;;;;;;0.10;0.10;;;20.40;99.90;;;;;;5036029;28;20043;-84